Nearby METAR Reports

 

KSJC - San Jose, California, USA
Distance from station: NE 14km
Updated: 18/02/2018 21:53
Partly cloudy
Partly cloudy
 Wind from W
Wind: W 22 km/h
Temperature: 10°C
Wind Chill: 7°C
Dew Point: 2°C
Humidity: 58%
Barometer: 1014.6 hPa
Clouds: Partly cloudy
Visibility: 16 km
Cloud details: Few Clouds 853 m
Partly cloudy 1372 m
Partly cloudy 2286 m
2018/02/19 01:53 KSJC 190153Z 27012KT 10SM FEW028 SCT045 SCT075 10/02 A2996 RMK AO2 PK WND 28026/0057 SLP146 T01000017
KNUQ - Moffett Nas/Mtn, California, USA
Distance from station: N 14km
Updated: 18/02/2018 21:56
Clear
Clear
 Wind from NW
Wind: NW 26 km/h, Gust: 43 km/h
Temperature: 9°C
Wind Chill: 6°C
Dew Point: 2°C
Humidity: 62%
Barometer: 1014.9 hPa
Clouds: Clear
Visibility: 16 km
2018/02/19 01:56 KNUQ 190156Z 32014G23KT 10SM CLR 09/02 A2997 RMK AO2 SLP152 T00940017
 
KPAO - Palo Alto, California, USA
Distance from station: NNW 23km
Updated: 18/02/2018 21:47
Mostly cloudy
Mostly cloudy
 Wind from W
Wind: W 31 km/h, Gust: 43 km/h
Clouds: Mostly cloudy
Visibility: 16 km
Cloud details: Mostly cloudy 1067 m
2018/02/19 01:47 KPAO 190147Z 28017G23KT 10SM BKN035 --/-- A2997
KRHV - San Jose/Reid, California, USA
Distance from station: ENE 19km
Updated: 18/02/2018 21:47
Mostly cloudy
Mostly cloudy
 Wind from NW
Wind: NW 33 km/h
Temperature: 10°C
Wind Chill: 6°C
Dew Point: 1°C
Humidity: 54%
Barometer: 1013.9 hPa
Clouds: Mostly cloudy
Visibility: 16 km
Cloud details: Mostly cloudy 1067 m
2018/02/19 01:47 KRHV 190147Z 31018KT 10SM BKN035 10/01 A2994
 
KOAK - Oakland, California, USA
Distance from station: NNW 50km
Updated: 18/02/2018 21:53
Few Clouds
Few Clouds
 Wind from W
Wind: W 44 km/h
Temperature: 9°C
Wind Chill: 4°C
Dew Point: 3°C
Humidity: 66%
Barometer: 1014.2 hPa
Clouds: Few Clouds
Visibility: 16 km
Cloud details: Few Clouds 610 m
Few Clouds 1036 m
2018/02/19 01:53 KOAK 190153Z 28024KT 10SM FEW020 FEW034 09/03 A2995 RMK AO2 PK WND 28030/0139 SLP140 T00940028
KSQL - San Carlos Airpo, California, USA
Distance from station: NW 34km
Updated: 18/02/2018 21:55
Partly cloudy
Partly cloudy
 Wind from WNW
Wind: WNW 37 km/h, Gust: 48 km/h
Temperature: 9°C
Wind Chill: 4°C
Dew Point: 2°C
Humidity: 62%
Barometer: 1015.2 hPa
Clouds: Partly cloudy
Visibility: 16 km
Cloud details: Partly cloudy 1006 m
Partly cloudy 1250 m
2018/02/19 01:55 KSQL 190155Z 29020G26KT 10SM SCT033 SCT041 09/02 A2998
 
KSFO - San Francisco, California, USA
Distance from station: NW 49km
Updated: 18/02/2018 21:56
Partly cloudy
Partly cloudy
 Wind from WNW
Wind: WNW 44 km/h, Gust: 61 km/h
Temperature: 9°C
Wind Chill: 4°C
Dew Point: 1°C
Humidity: 58%
Barometer: 1014.9 hPa
Clouds: Partly cloudy
Visibility: 16 km
Cloud details: Few Clouds 701 m
Partly cloudy 1829 m
2018/02/19 01:56 KSFO 190156Z 29024G33KT 10SM FEW023 SCT060 09/01 A2997 RMK AO2 PK WND 29034/0143 SLP148 T00940011 $
KE16 - San Martin, California, USA
Distance from station: ESE 43km
Updated: 18/02/2018 21:55
Mostly cloudy
Mostly cloudy
 Wind from NW
Wind: NW 19 km/h, Gust: 39 km/h
Temperature: 10°C
Wind Chill: 7°C
Dew Point: 0°C
Humidity: 50%
Barometer: 1014.9 hPa
Clouds: Mostly cloudy
Visibility: 16 km
Cloud details: Mostly cloudy 2134 m
2018/02/19 01:55 KE16 190155Z AUTO 31010G21KT 10SM BKN070 10/00 A2997 RMK AO2
 
KWVI - Watsonville, California, USA
Distance from station: SSE 44km
Updated: 18/02/2018 21:53
Few Clouds
Few Clouds
 Wind from WSW
Wind: WSW 15 km/h, Gust: 30 km/h
Temperature: 8°C
Wind Chill: 5°C
Dew Point: 3°C
Humidity: 71%
Barometer: 1015.2 hPa
Clouds: Few Clouds
Visibility: 14 km
Cloud details: Few Clouds 1524 m
Few Clouds 2134 m
2018/02/19 01:53 KWVI 190153Z AUTO 25008G16KT 9SM FEW050 FEW070 08/03 A2998 RMK AO2 RAB32E42 SLP152 P0000 T00830033
KHAF - Half Moon Bay, California, USA
Distance from station: WNW 50km
Updated: 18/02/2018 21:55
Partly cloudy
Partly cloudy
 Wind from NNW
Wind: NNW 41 km/h, Gust: 50 km/h
Temperature: 8°C
Wind Chill: 3°C
Dew Point: 3°C
Humidity: 71%
Barometer: 1014.6 hPa
Clouds: Partly cloudy
Visibility: 11 km
Cloud details: Partly cloudy 823 m
2018/02/19 01:55 KHAF 190155Z AUTO 33022G27KT 7SM SCT027 08/03 A2996 RMK AO2
 
KHWD - Hayward, California, USA
Distance from station: N 44km
Updated: 18/02/2018 21:54
Clear
Clear
 Wind from WNW
Wind: WNW 35 km/h, Gust: 48 km/h
Temperature: 10°C
Wind Chill: 6°C
Dew Point: 1°C
Humidity: 54%
Barometer: 1014.2 hPa
Clouds: Clear
Visibility: 16 km
2018/02/19 01:54 KHWD 190154Z 30019G26KT 10SM CLR 10/01 A2995 RMK AO2 PK WND 30027/0058 SLP151 T01000011
KLVK - Livermore, California, USA
Distance from station: NNE 51km
Updated: 18/02/2018 21:53
Clear
Clear
 Wind from WNW
Wind: WNW 20 km/h, Gust: 41 km/h
Temperature: 8°C
Wind Chill: 4°C
Dew Point: 1°C
Humidity: 62%
Barometer: 1013.5 hPa
Clouds: Clear
Visibility: 16 km
2018/02/19 01:53 KLVK 190153Z 29011G22KT 10SM CLR 08/01 A2993 RMK AO2 PK WND 30028/0111 SLP133 T00830011